createdAt,value
2019-03-09T00:02:07.108Z,73.50
2019-03-09T00:04:35.554Z,72.50
2019-03-09T00:07:04.197Z,72.10
2019-03-09T00:09:32.642Z,72.00
2019-03-09T00:12:01.400Z,71.60
2019-03-09T00:14:29.941Z,71.30
2019-03-09T00:16:58.578Z,71.10
2019-03-09T00:19:27.189Z,71.60
2019-03-09T00:21:55.796Z,72.30
2019-03-09T00:24:31.884Z,72.70
2019-03-09T00:27:02.064Z,73.30
2019-03-09T00:29:32.189Z,73.30
2019-03-09T00:32:04.712Z,72.60
2019-03-09T00:34:34.881Z,72.60
2019-03-09T00:37:03.780Z,72.60
2019-03-09T00:39:32.318Z,72.30
2019-03-09T00:42:00.831Z,71.50
2019-03-09T00:44:29.311Z,70.60
2019-03-09T00:46:57.760Z,70.00
2019-03-09T00:49:26.586Z,69.90
2019-03-09T00:51:57.355Z,70.00
2019-03-09T00:54:25.870Z,69.50
2019-03-09T00:56:54.561Z,70.00
2019-03-09T00:59:23.022Z,70.90
2019-03-09T01:01:51.481Z,70.10
2019-03-09T01:04:20.014Z,70.60
2019-03-09T01:06:48.526Z,69.70
2019-03-09T01:09:17.001Z,69.20
2019-03-09T01:12:03.889Z,69.10
2019-03-09T01:14:32.371Z,69.20
2019-03-09T01:17:00.836Z,70.80
2019-03-09T01:19:29.311Z,71.80
2019-03-09T01:21:57.764Z,72.40
2019-03-09T01:24:26.272Z,72.80
2019-03-09T01:26:55.447Z,73.40
2019-03-09T01:29:23.923Z,73.40
2019-03-09T01:31:52.406Z,72.90
2019-03-09T01:34:20.935Z,72.80
2019-03-09T01:36:49.405Z,73.40
2019-03-09T01:39:17.880Z,74.60
2019-03-09T01:41:46.395Z,75.30
2019-03-09T01:44:15.267Z,75.60
2019-03-09T01:46:43.712Z,75.90
2019-03-09T01:49:12.197Z,76.20
2019-03-09T01:51:40.652Z,76.20
2019-03-09T01:54:09.136Z,76.10
2019-03-09T01:56:37.599Z,75.80
2019-03-09T01:59:06.072Z,75.90
2019-03-09T02:01:35.639Z,76.10
2019-03-09T02:04:04.118Z,76.60
2019-03-09T02:06:32.564Z,76.80
2019-03-09T02:09:01.081Z,77.20
2019-03-09T02:11:29.561Z,77.60
2019-03-09T02:13:58.011Z,77.60
2019-03-09T02:16:26.487Z,77.90
2019-03-09T02:18:54.946Z,77.90
2019-03-09T02:21:23.435Z,77.30
2019-03-09T02:23:51.959Z,77.70
2019-03-09T02:26:20.443Z,77.40
2019-03-09T02:28:48.889Z,77.50
2019-03-09T02:31:17.380Z,78.10
2019-03-09T02:33:45.835Z,78.10
2019-03-09T02:36:14.349Z,78.50
2019-03-09T02:38:44.457Z,79.00
2019-03-09T02:41:12.914Z,78.90
2019-03-09T02:43:41.381Z,78.30
2019-03-09T02:46:09.847Z,77.40
2019-03-09T02:48:38.775Z,77.00
2019-03-09T02:51:07.434Z,76.70
2019-03-09T02:53:36.020Z,77.00
2019-03-09T02:56:04.500Z,77.10
2019-03-09T02:58:32.940Z,77.20
2019-03-09T03:01:05.786Z,77.00
2019-03-09T03:03:34.251Z,76.70
2019-03-09T03:06:06.278Z,77.00
2019-03-09T03:08:34.792Z,78.50
2019-03-09T03:11:03.256Z,78.90
2019-03-09T03:13:31.726Z,79.50
2019-03-09T03:16:00.208Z,79.50
2019-03-09T03:18:28.666Z,79.80
2019-03-09T03:20:57.144Z,79.80
2019-03-09T03:23:26.080Z,79.20
2019-03-09T03:25:54.561Z,80.00
2019-03-09T03:28:23.006Z,80.40
2019-03-09T03:30:51.532Z,80.10
2019-03-09T03:33:20.052Z,80.10
2019-03-09T03:35:48.580Z,80.10
2019-03-09T03:38:17.032Z,80.60
2019-03-09T03:40:47.008Z,79.90
2019-03-09T03:43:16.299Z,78.90
2019-03-09T03:45:44.907Z,79.60
2019-03-09T03:48:13.378Z,80.20
2019-03-09T03:50:41.833Z,80.30
2019-03-09T03:53:10.301Z,80.80
2019-03-09T03:55:38.745Z,79.70
2019-03-09T03:58:07.956Z,80.80
2019-03-09T04:00:36.490Z,81.00
2019-03-09T04:03:04.995Z,81.80
2019-03-09T04:05:33.454Z,81.90
2019-03-09T04:08:02.003Z,81.90
2019-03-09T04:10:30.742Z,82.10
2019-03-09T04:12:59.192Z,82.20
2019-03-09T04:15:27.683Z,82.40
2019-03-09T04:17:56.143Z,82.30
2019-03-09T04:20:24.637Z,82.10
2019-03-09T04:22:53.097Z,82.10
2019-03-09T04:25:21.593Z,82.50
2019-03-09T04:27:50.219Z,83.00
2019-03-09T04:30:18.722Z,82.80
2019-03-09T04:32:47.186Z,82.70
2019-03-09T04:35:15.634Z,83.40
2019-03-09T04:37:44.194Z,83.70
2019-03-09T04:40:13.788Z,83.80
2019-03-09T04:42:42.269Z,84.00
2019-03-09T04:45:12.359Z,84.90
2019-03-09T04:47:40.844Z,84.00
2019-03-09T04:50:12.267Z,84.20
2019-03-09T04:52:40.789Z,85.00
2019-03-09T04:55:09.783Z,84.30
2019-03-09T04:57:39.460Z,85.00
2019-03-09T05:00:11.217Z,84.50
2019-03-09T05:02:39.747Z,84.20
2019-03-09T05:05:10.028Z,84.20
2019-03-09T05:07:40.697Z,84.80
2019-03-09T05:10:12.509Z,85.60
2019-03-09T05:12:41.982Z,85.20
2019-03-09T05:15:13.465Z,84.80
2019-03-09T05:17:41.907Z,84.20
2019-03-09T05:20:10.502Z,84.30
2019-03-09T05:22:38.984Z,84.70
2019-03-09T05:25:07.460Z,85.40
2019-03-09T05:27:35.932Z,85.80
2019-03-09T05:30:07.129Z,85.60
2019-03-09T05:32:35.712Z,85.90
2019-03-09T05:35:05.701Z,86.10
2019-03-09T05:37:42.914Z,86.30
2019-03-09T05:40:07.698Z,86.30
2019-03-09T05:42:36.151Z,86.50
2019-03-09T05:45:06.080Z,86.00
2019-03-09T05:47:34.546Z,86.00
2019-03-09T05:50:04.688Z,85.80
2019-03-09T05:52:33.204Z,86.10
2019-03-09T05:55:02.638Z,85.80
2019-03-09T05:57:31.102Z,86.00
2019-03-09T05:59:59.582Z,86.70
2019-03-09T06:02:28.060Z,86.50
2019-03-09T06:04:56.557Z,86.40
2019-03-09T06:07:25.020Z,86.60
2019-03-09T06:09:53.480Z,86.40
2019-03-09T06:12:21.958Z,86.30
2019-03-09T06:14:50.417Z,86.40
2019-03-09T06:17:18.897Z,86.20
2019-03-09T06:19:47.343Z,86.10
2019-03-09T06:22:15.818Z,86.10
2019-03-09T06:24:44.289Z,86.30
2019-03-09T06:27:12.790Z,85.90
2019-03-09T06:29:41.610Z,85.90
2019-03-09T06:32:34.450Z,85.50
2019-03-09T06:35:03.553Z,84.80
2019-03-09T06:37:33.265Z,83.70
2019-03-09T06:40:01.736Z,83.70
2019-03-09T06:42:36.530Z,83.40
2019-03-09T06:45:08.153Z,83.00
2019-03-09T06:47:40.811Z,82.70
2019-03-09T06:50:14.409Z,82.80
2019-03-09T06:52:42.865Z,82.80
2019-03-09T06:55:13.212Z,82.80
2019-03-09T06:57:41.677Z,82.70
2019-03-09T07:00:28.459Z,82.80
2019-03-09T07:02:56.918Z,83.30
2019-03-09T07:05:25.425Z,82.70
2019-03-09T07:07:53.888Z,82.30
2019-03-09T07:10:22.340Z,82.30
2019-03-09T07:12:50.816Z,82.40
2019-03-09T07:15:22.181Z,82.40
2019-03-09T07:17:51.916Z,81.40
2019-03-09T07:20:20.395Z,80.90
2019-03-09T07:22:48.893Z,81.00
2019-03-09T07:25:17.352Z,81.00
2019-03-09T07:28:06.320Z,80.80
2019-03-09T07:30:34.757Z,79.80
2019-03-09T07:33:03.344Z,79.40
2019-03-09T07:35:31.819Z,78.90
2019-03-09T07:38:00.279Z,78.40
2019-03-09T07:40:28.764Z,78.50
2019-03-09T07:42:57.222Z,78.10
2019-03-09T07:45:25.706Z,77.20
2019-03-09T07:47:54.162Z,76.20
2019-03-09T07:50:22.734Z,75.90
2019-03-09T07:52:51.204Z,75.30
2019-03-09T07:55:22.186Z,74.60
2019-03-09T07:57:50.635Z,73.80
2019-03-09T08:00:22.338Z,73.20
2019-03-09T08:02:51.936Z,72.40
2019-03-09T08:05:20.891Z,72.00
2019-03-09T08:07:49.360Z,71.80
2019-03-09T08:10:20.127Z,70.10
2019-03-09T08:12:48.621Z,68.20
2019-03-09T08:15:19.887Z,66.70
2019-03-09T08:17:48.465Z,66.10
2019-03-09T08:20:21.856Z,66.40
2019-03-09T08:22:50.341Z,65.60
2019-03-09T08:25:23.404Z,65.70
2019-03-09T08:27:51.940Z,65.50
2019-03-09T08:30:25.016Z,65.80
2019-03-09T08:32:53.503Z,66.70
2019-03-09T08:35:24.643Z,68.00
2019-03-09T08:37:55.040Z,67.60
2019-03-09T08:40:23.326Z,66.40
2019-03-09T08:42:57.661Z,66.40
2019-03-09T08:45:30.633Z,65.30
2019-03-09T08:47:59.091Z,66.10
2019-03-09T08:50:27.615Z,65.40
2019-03-09T08:52:56.082Z,65.00
2019-03-09T08:55:24.969Z,64.60
2019-03-09T08:57:53.446Z,65.40
2019-03-09T09:00:26.865Z,65.90
2019-03-09T09:02:55.402Z,66.40
2019-03-09T09:05:23.866Z,67.20
2019-03-09T09:07:52.348Z,67.20
2019-03-09T09:10:20.811Z,67.40
2019-03-09T09:12:52.627Z,67.10
2019-03-09T09:15:20.583Z,67.50
2019-03-09T09:17:49.073Z,67.80
2019-03-09T09:20:23.255Z,67.10
2019-03-09T09:22:51.732Z,66.50
2019-03-09T09:25:20.252Z,65.20
2019-03-09T09:27:48.748Z,65.40
2019-03-09T09:30:20.626Z,64.60
2019-03-09T09:32:49.055Z,63.60
2019-03-09T09:35:18.062Z,63.70
2019-03-09T09:37:46.548Z,63.20
2019-03-09T09:40:25.946Z,63.60
2019-03-09T09:42:54.482Z,64.30
2019-03-09T09:45:22.967Z,64.00
2019-03-09T09:47:52.220Z,63.50
2019-03-09T09:50:20.807Z,62.60
2019-03-09T09:52:49.274Z,61.00
2019-03-09T09:55:19.112Z,61.20
2019-03-09T09:57:47.589Z,61.50
2019-03-09T10:00:27.188Z,61.40
2019-03-09T10:02:55.647Z,60.60
2019-03-09T10:05:24.928Z,60.00
2019-03-09T10:07:53.624Z,60.00
2019-03-09T10:10:24.570Z,59.90
2019-03-09T10:12:55.552Z,60.00
2019-03-09T10:15:31.788Z,60.30
2019-03-09T10:18:00.277Z,59.50
2019-03-09T10:20:28.950Z,59.10
2019-03-09T10:23:04.024Z,59.10
2019-03-09T10:25:27.873Z,58.90
2019-03-09T10:27:56.439Z,57.90
2019-03-09T10:30:26.662Z,56.50
2019-03-09T10:32:55.099Z,55.60
2019-03-09T10:35:23.614Z,56.20
2019-03-09T10:37:52.084Z,57.00
2019-03-09T10:40:23.437Z,57.20
2019-03-09T10:42:52.007Z,56.60
2019-03-09T10:45:21.986Z,55.30
2019-03-09T10:47:51.123Z,54.10
2019-03-09T10:50:25.969Z,54.50
2019-03-09T10:52:55.114Z,54.90
2019-03-09T10:55:29.173Z,53.60
2019-03-09T10:57:57.874Z,53.30
2019-03-09T11:00:39.963Z,51.40
2019-03-09T11:03:08.519Z,51.10
2019-03-09T11:05:37.073Z,51.60
2019-03-09T11:08:05.562Z,51.80
2019-03-09T11:10:34.057Z,52.10
2019-03-09T11:13:02.522Z,51.90
2019-03-09T11:15:31.668Z,49.20
2019-03-09T11:18:00.095Z,49.30
2019-03-09T11:20:28.599Z,49.00
2019-03-09T11:23:01.971Z,49.40
2019-03-09T11:25:30.521Z,49.20
2019-03-09T11:28:09.750Z,49.00
2019-03-09T11:30:37.996Z,48.80
2019-03-09T11:33:21.889Z,47.90
2019-03-09T11:35:50.618Z,48.30
2019-03-09T11:38:19.148Z,48.10
2019-03-09T11:40:56.835Z,48.90
2019-03-09T11:43:19.269Z,47.90
2019-03-09T11:45:47.719Z,47.70
2019-03-09T11:48:20.398Z,48.00
2019-03-09T11:51:05.426Z,48.70
2019-03-09T11:53:33.954Z,48.20
2019-03-09T11:56:04.137Z,47.80
2019-03-09T11:58:34.363Z,47.60
2019-03-09T12:01:02.960Z,47.30
2019-03-09T12:03:40.271Z,47.70
2019-03-09T12:06:08.744Z,47.60
2019-03-09T12:08:38.314Z,47.50
2019-03-09T12:11:06.788Z,47.20
2019-03-09T12:13:35.302Z,47.20
2019-03-09T12:16:03.785Z,47.20
2019-03-09T12:18:32.295Z,47.00
2019-03-09T12:21:00.771Z,46.50
2019-03-09T12:23:29.247Z,45.90
2019-03-09T12:25:57.873Z,46.30
2019-03-09T12:28:26.350Z,46.30
2019-03-09T12:30:54.850Z,45.90
2019-03-09T12:33:23.338Z,45.10
2019-03-09T12:35:51.798Z,44.50
2019-03-09T12:38:20.390Z,44.10
2019-03-09T12:40:53.857Z,43.70
2019-03-09T12:43:23.718Z,43.20
2019-03-09T12:45:52.263Z,43.40
2019-03-09T12:48:22.659Z,44.40
2019-03-09T12:50:51.131Z,44.30
2019-03-09T12:53:19.623Z,44.90
2019-03-09T12:55:50.486Z,44.70
2019-03-09T12:58:19.046Z,43.20
2019-03-09T13:00:48.409Z,44.00
2019-03-09T13:03:17.006Z,43.50
2019-03-09T13:05:47.870Z,43.70
2019-03-09T13:08:16.349Z,43.20
2019-03-09T13:10:44.899Z,42.20
2019-03-09T13:13:16.711Z,41.30
2019-03-09T13:15:45.019Z,41.80
2019-03-09T13:18:16.161Z,42.30
2019-03-09T13:20:43.985Z,41.60
2019-03-09T13:23:12.515Z,41.90
2019-03-09T13:25:40.990Z,43.10
2019-03-09T13:28:09.516Z,42.30
2019-03-09T13:30:43.883Z,41.60
2019-03-09T13:33:12.555Z,40.10
2019-03-09T13:35:41.723Z,38.90
2019-03-09T13:38:12.659Z,39.90
2019-03-09T13:40:41.581Z,39.80
2019-03-09T13:43:10.112Z,40.80
2019-03-09T13:45:39.775Z,40.10
2019-03-09T13:48:08.453Z,38.10
2019-03-09T13:50:38.888Z,35.90
2019-03-09T13:53:36.330Z,33.90
2019-03-09T13:56:05.037Z,32.80
2019-03-09T14:01:49.329Z,33.10
2019-03-09T14:05:11.916Z,30.80
2019-03-09T14:08:06.668Z,29.90
2019-03-09T14:10:44.017Z,29.40
2019-03-09T14:13:16.528Z,28.40
2019-03-09T14:15:45.012Z,27.60
2019-03-09T14:18:17.809Z,28.00
2019-03-09T14:20:48.530Z,28.90
2019-03-09T14:23:17.105Z,29.20
2019-03-09T14:25:46.219Z,30.20
2019-03-09T14:28:33.425Z,30.90
2019-03-09T14:31:03.573Z,32.20
2019-03-09T14:34:18.451Z,32.70
2019-03-09T14:36:47.046Z,33.00
2019-03-09T14:40:05.476Z,34.70
2019-03-09T14:42:34.107Z,36.50
2019-03-09T14:45:05.956Z,36.50
2019-03-09T14:47:34.473Z,36.20
2019-03-09T14:50:03.474Z,36.40
2019-03-09T14:52:32.061Z,36.30
2019-03-09T14:55:00.759Z,36.30
2019-03-09T14:57:38.530Z,37.20
2019-03-09T15:00:24.886Z,38.00
2019-03-09T15:05:53.104Z,39.70
2019-03-09T15:08:22.185Z,40.70
2019-03-09T15:10:51.839Z,40.70
2019-03-09T15:13:20.329Z,40.20
2019-03-09T15:15:48.922Z,40.00
2019-03-09T15:18:17.410Z,40.50
2019-03-09T15:20:55.786Z,40.80
2019-03-09T15:23:24.271Z,40.70
2019-03-09T15:25:54.505Z,41.10
2019-03-09T15:28:24.596Z,41.30
2019-03-09T15:30:53.128Z,40.90
2019-03-09T15:33:22.025Z,39.50
2019-03-09T15:35:50.837Z,39.60
2019-03-09T15:38:28.617Z,39.20
2019-03-09T15:40:57.068Z,39.70
2019-03-09T15:43:25.871Z,38.90
2019-03-09T15:45:57.915Z,40.90
2019-03-09T15:48:25.791Z,40.70
2019-03-09T15:50:54.955Z,41.40
2019-03-09T15:53:23.578Z,42.50
2019-03-09T15:55:58.110Z,42.60
2019-03-09T15:58:26.626Z,43.10
2019-03-09T16:04:02.218Z,38.80
2019-03-09T16:06:30.800Z,34.70
2019-03-09T16:09:02.024Z,34.10
2019-03-09T16:11:32.251Z,33.70
2019-03-09T16:14:00.773Z,34.70
2019-03-09T16:16:29.342Z,35.60
2019-03-09T16:19:00.216Z,36.80
2019-03-09T16:21:36.006Z,37.60
2019-03-09T16:24:06.259Z,38.10
2019-03-09T16:26:34.823Z,39.40
2019-03-09T16:29:03.393Z,40.00
2019-03-09T16:31:31.886Z,40.00
2019-03-09T16:34:00.419Z,39.50
2019-03-09T16:36:30.547Z,39.50
2019-03-09T16:38:59.175Z,40.90
2019-03-09T16:41:27.654Z,42.60
2019-03-09T16:43:56.230Z,43.40
2019-03-09T16:46:24.701Z,44.10
2019-03-09T16:48:54.131Z,45.10
2019-03-09T16:51:22.687Z,45.40
2019-03-09T16:54:13.967Z,45.50
2019-03-09T16:56:42.539Z,46.20
2019-03-09T16:59:13.629Z,46.10
2019-03-09T17:01:42.109Z,46.40
2019-03-09T17:04:10.718Z,46.50
2019-03-09T17:06:40.808Z,47.00
2019-03-09T17:09:09.331Z,47.00
2019-03-09T17:11:37.843Z,47.20
2019-03-09T17:14:09.495Z,47.50
2019-03-09T17:16:38.727Z,47.50
2019-03-09T17:19:07.282Z,48.00
2019-03-09T17:21:35.877Z,48.00
2019-03-09T17:24:04.420Z,48.20
2019-03-09T17:26:32.981Z,48.50
2019-03-09T17:29:01.459Z,48.90
2019-03-09T17:31:29.968Z,48.80
2019-03-09T17:33:58.490Z,49.00
2019-03-09T17:36:27.015Z,48.90
2019-03-09T17:38:55.570Z,49.10
2019-03-09T17:41:24.055Z,49.30
2019-03-09T17:43:52.631Z,49.70
2019-03-09T17:46:21.102Z,50.10
2019-03-09T17:48:49.666Z,50.20
2019-03-09T17:51:18.140Z,50.60
2019-03-09T17:53:46.847Z,51.00
2019-03-09T17:56:15.391Z,51.30
2019-03-09T17:58:43.881Z,51.60
2019-03-09T18:01:13.378Z,51.70
2019-03-09T18:03:42.021Z,51.80
2019-03-09T18:06:10.485Z,51.40
2019-03-09T18:08:38.969Z,51.50
2019-03-09T18:11:10.112Z,51.70
2019-03-09T18:13:38.731Z,51.70
2019-03-09T18:16:07.285Z,51.90
2019-03-09T18:18:35.770Z,52.00
2019-03-09T18:21:05.837Z,52.00
2019-03-09T18:23:37.154Z,52.10
2019-03-09T18:26:06.607Z,51.80
2019-03-09T18:28:36.786Z,51.90
2019-03-09T18:31:05.341Z,52.00
2019-03-09T18:33:33.866Z,52.20
2019-03-09T18:36:02.321Z,52.60
2019-03-09T18:38:42.589Z,52.70
2019-03-09T18:41:11.148Z,52.70
2019-03-09T18:43:39.850Z,52.60
2019-03-09T18:46:08.325Z,52.70
2019-03-09T18:48:36.934Z,52.80
2019-03-09T18:51:05.442Z,52.90
2019-03-09T18:53:33.959Z,53.20
2019-03-09T18:56:05.278Z,53.20
2019-03-09T18:58:34.057Z,53.50
2019-03-09T19:01:08.872Z,53.70
2019-03-09T19:03:37.346Z,53.80
2019-03-09T19:06:06.931Z,53.80
2019-03-09T19:08:36.531Z,54.10
2019-03-09T19:11:06.763Z,54.30
2019-03-09T19:13:45.742Z,54.50
2019-03-09T19:16:14.279Z,54.70
2019-03-09T19:18:44.893Z,54.70
2019-03-09T19:21:13.683Z,54.90
2019-03-09T19:23:42.373Z,55.40
2019-03-09T19:26:10.961Z,55.70
2019-03-09T19:28:39.457Z,56.10
2019-03-09T19:33:56.802Z,56.70
2019-03-09T19:36:25.273Z,57.10
2019-03-09T19:38:53.757Z,57.40
2019-03-09T19:41:22.523Z,57.60
2019-03-09T19:43:51.086Z,57.80
2019-03-09T19:46:19.657Z,58.00
2019-03-09T19:48:48.272Z,58.30
2019-03-09T19:51:16.743Z,59.00
2019-03-09T19:53:45.290Z,59.70
2019-03-09T19:56:13.844Z,59.70
2019-03-09T19:58:42.322Z,59.60
2019-03-09T20:01:10.878Z,59.80
2019-03-09T20:03:39.345Z,60.30
2019-03-09T20:06:08.609Z,60.10
2019-03-09T20:08:37.136Z,60.60
2019-03-09T20:11:05.610Z,60.70
2019-03-09T20:13:34.090Z,60.60
2019-03-09T20:16:02.601Z,60.50
2019-03-09T20:18:31.084Z,60.30
2019-03-09T20:20:59.549Z,60.60
2019-03-09T20:23:28.101Z,60.70
2019-03-09T20:25:56.560Z,60.90
2019-03-09T20:28:25.051Z,60.20
2019-03-09T20:30:59.784Z,60.00
2019-03-09T20:33:28.928Z,60.10
2019-03-09T20:35:57.500Z,60.10
2019-03-09T20:38:25.993Z,60.30
2019-03-09T20:40:54.463Z,60.50
2019-03-09T20:43:23.073Z,61.20
2019-03-09T20:45:51.604Z,60.90
2019-03-09T20:48:20.319Z,61.20
2019-03-09T20:50:48.782Z,61.50
2019-03-09T20:53:21.288Z,61.70
2019-03-09T20:55:49.807Z,61.80
2019-03-09T20:58:18.352Z,62.00
2019-03-09T21:00:46.881Z,62.10
2019-03-09T21:03:15.404Z,62.40
2019-03-09T21:05:43.899Z,62.80
2019-03-09T21:08:12.388Z,63.20
2019-03-09T21:10:40.996Z,64.20
2019-03-09T21:13:11.289Z,64.30
2019-03-09T21:15:39.864Z,64.90
2019-03-09T21:18:08.444Z,65.10
2019-03-09T21:20:36.916Z,65.10
2019-03-09T21:23:05.410Z,65.10
2019-03-09T21:25:33.875Z,65.60
2019-03-09T21:28:02.425Z,65.90
2019-03-09T21:30:30.896Z,65.30
2019-03-09T21:32:59.394Z,65.30
2019-03-09T21:35:27.850Z,66.30
2019-03-09T21:37:56.419Z,65.90
2019-03-09T21:40:24.881Z,65.90
2019-03-09T21:42:53.359Z,65.70
2019-03-09T21:45:21.905Z,65.20
2019-03-09T21:47:50.372Z,65.10
2019-03-09T21:50:18.899Z,64.90
2019-03-09T21:52:47.366Z,65.40
2019-03-09T21:55:16.798Z,66.20
2019-03-09T21:57:45.255Z,66.40
2019-03-09T22:00:18.157Z,66.70
2019-03-09T22:02:46.618Z,66.50
2019-03-09T22:05:15.162Z,66.50
2019-03-09T22:07:43.672Z,66.70
2019-03-09T22:10:12.880Z,66.70
2019-03-09T22:12:41.423Z,66.70
2019-03-09T22:15:14.152Z,66.90
2019-03-09T22:17:42.619Z,67.20
2019-03-09T22:20:12.731Z,67.20
2019-03-09T22:22:41.214Z,67.50
2019-03-09T22:25:13.819Z,67.60
2019-03-09T22:27:42.277Z,67.50
2019-03-09T22:30:14.829Z,67.90
2019-03-09T22:32:43.354Z,68.30
2019-03-09T22:35:12.987Z,69.30
2019-03-09T22:37:41.421Z,68.80
2019-03-09T22:40:15.711Z,69.50
2019-03-09T22:42:44.217Z,70.20
2019-03-09T22:45:13.923Z,70.00
2019-03-09T22:47:42.380Z,70.20
2019-03-09T22:50:16.692Z,70.90
2019-03-09T22:52:45.530Z,70.90
2019-03-09T22:55:15.123Z,71.40
2019-03-09T22:57:43.592Z,71.80
2019-03-09T23:00:28.597Z,71.70
2019-03-09T23:02:57.077Z,71.90
2019-03-09T23:05:25.561Z,72.70
2019-03-09T23:07:54.115Z,72.90
2019-03-09T23:10:24.069Z,73.50
2019-03-09T23:12:52.545Z,73.10
2019-03-09T23:15:21.120Z,72.60
2019-03-09T23:17:49.587Z,72.70
2019-03-09T23:20:18.212Z,73.30
2019-03-09T23:22:46.745Z,73.70
2019-03-09T23:25:15.442Z,73.90
2019-03-09T23:27:43.932Z,74.10
2019-03-09T23:30:15.664Z,74.40
2019-03-09T23:32:46.578Z,74.90
2019-03-09T23:35:15.184Z,74.40
2019-03-09T23:37:44.078Z,74.40
2019-03-09T23:40:17.268Z,74.00
2019-03-09T23:42:45.831Z,73.60
2019-03-09T23:45:16.815Z,74.30
2019-03-09T23:47:46.949Z,73.50
2019-03-09T23:50:16.660Z,74.30
2019-03-09T23:52:45.310Z,75.40
2019-03-09T23:55:21.827Z,74.60
2019-03-09T23:57:44.256Z,74.40
